sensor_id;sensor_type;location;lat;lon;timestamp;P1;durP1;ratioP1;P2;durP2;ratioP2
13832;SDS011;6987;19.472;-99.276;2024-01-27T00:00:23;2.00;;;1.40;;
13832;SDS011;6987;19.472;-99.276;2024-01-27T00:02:52;1.38;;;1.27;;
13832;SDS011;6987;19.472;-99.276;2024-01-27T00:05:21;1.17;;;1.17;;
13832;SDS011;6987;19.472;-99.276;2024-01-27T00:07:50;4.63;;;1.58;;
13832;SDS011;6987;19.472;-99.276;2024-01-27T00:10:21;4.10;;;1.33;;
13832;SDS011;6987;19.472;-99.276;2024-01-27T00:12:49;3.40;;;1.38;;
13832;SDS011;6987;19.472;-99.276;2024-01-27T00:15:18;1.38;;;1.13;;
13832;SDS011;6987;19.472;-99.276;2024-01-27T00:17:48;2.67;;;1.40;;
13832;SDS011;6987;19.472;-99.276;2024-01-27T00:20:17;4.97;;;1.20;;
13832;SDS011;6987;19.472;-99.276;2024-01-27T00:22:46;2.50;;;1.40;;
13832;SDS011;6987;19.472;-99.276;2024-01-27T00:25:15;3.67;;;1.40;;
13832;SDS011;6987;19.472;-99.276;2024-01-27T00:27:46;1.88;;;1.20;;
13832;SDS011;6987;19.472;-99.276;2024-01-27T00:30:15;1.08;;;1.00;;
13832;SDS011;6987;19.472;-99.276;2024-01-27T00:32:44;2.28;;;1.27;;
13832;SDS011;6987;19.472;-99.276;2024-01-27T00:35:13;6.32;;;1.50;;
13832;SDS011;6987;19.472;-99.276;2024-01-27T00:37:42;1.92;;;1.00;;
13832;SDS011;6987;19.472;-99.276;2024-01-27T00:40:11;6.20;;;1.20;;
13832;SDS011;6987;19.472;-99.276;2024-01-27T00:42:41;1.52;;;1.33;;
13832;SDS011;6987;19.472;-99.276;2024-01-27T00:45:12;4.57;;;1.35;;
13832;SDS011;6987;19.472;-99.276;2024-01-27T00:47:41;3.88;;;1.42;;
13832;SDS011;6987;19.472;-99.276;2024-01-27T00:50:11;1.75;;;1.40;;
13832;SDS011;6987;19.472;-99.276;2024-01-27T00:52:41;14.82;;;1.55;;
13832;SDS011;6987;19.472;-99.276;2024-01-27T00:55:10;5.05;;;1.35;;
13832;SDS011;6987;19.472;-99.276;2024-01-27T00:57:39;1.55;;;1.25;;
13832;SDS011;6987;19.472;-99.276;2024-01-27T01:00:09;3.35;;;1.20;;
13832;SDS011;6987;19.472;-99.276;2024-01-27T01:02:40;2.92;;;1.23;;
13832;SDS011;6987;19.472;-99.276;2024-01-27T01:05:09;2.30;;;1.10;;
13832;SDS011;6987;19.472;-99.276;2024-01-27T01:07:38;2.45;;;1.75;;
13832;SDS011;6987;19.472;-99.276;2024-01-27T01:10:08;4.78;;;1.38;;
13832;SDS011;6987;19.472;-99.276;2024-01-27T01:12:37;2.10;;;1.17;;
13832;SDS011;6987;19.472;-99.276;2024-01-27T01:15:08;1.10;;;1.10;;
13832;SDS011;6987;19.472;-99.276;2024-01-27T01:17:41;3.25;;;1.17;;
13832;SDS011;6987;19.472;-99.276;2024-01-27T01:20:10;3.70;;;1.23;;
13832;SDS011;6987;19.472;-99.276;2024-01-27T01:22:39;2.45;;;1.05;;
13832;SDS011;6987;19.472;-99.276;2024-01-27T01:25:08;3.38;;;1.40;;
13832;SDS011;6987;19.472;-99.276;2024-01-27T01:27:37;3.13;;;1.58;;
13832;SDS011;6987;19.472;-99.276;2024-01-27T01:30:06;5.03;;;1.63;;
13832;SDS011;6987;19.472;-99.276;2024-01-27T01:32:55;2.17;;;1.13;;
13832;SDS011;6987;19.472;-99.276;2024-01-27T01:35:24;1.65;;;1.15;;
13832;SDS011;6987;19.472;-99.276;2024-01-27T01:37:52;3.72;;;1.17;;
13832;SDS011;6987;19.472;-99.276;2024-01-27T01:40:21;3.72;;;1.00;;
13832;SDS011;6987;19.472;-99.276;2024-01-27T01:42:50;2.75;;;1.13;;
13832;SDS011;6987;19.472;-99.276;2024-01-27T01:45:19;4.75;;;1.05;;
13832;SDS011;6987;19.472;-99.276;2024-01-27T01:47:48;1.38;;;1.10;;
13832;SDS011;6987;19.472;-99.276;2024-01-27T01:50:19;1.90;;;1.13;;
13832;SDS011;6987;19.472;-99.276;2024-01-27T01:52:48;2.50;;;1.10;;
13832;SDS011;6987;19.472;-99.276;2024-01-27T01:55:18;1.67;;;1.45;;
13832;SDS011;6987;19.472;-99.276;2024-01-27T01:57:47;1.55;;;1.40;;
13832;SDS011;6987;19.472;-99.276;2024-01-27T02:00:16;4.20;;;1.52;;
13832;SDS011;6987;19.472;-99.276;2024-01-27T02:02:45;1.38;;;1.30;;
13832;SDS011;6987;19.472;-99.276;2024-01-27T02:05:15;1.70;;;1.38;;
13832;SDS011;6987;19.472;-99.276;2024-01-27T02:07:46;6.72;;;1.52;;
13832;SDS011;6987;19.472;-99.276;2024-01-27T02:10:16;1.65;;;1.33;;
13832;SDS011;6987;19.472;-99.276;2024-01-27T02:12:44;3.40;;;1.50;;
13832;SDS011;6987;19.472;-99.276;2024-01-27T02:15:13;5.93;;;2.38;;
13832;SDS011;6987;19.472;-99.276;2024-01-27T02:17:43;8.18;;;2.50;;
13832;SDS011;6987;19.472;-99.276;2024-01-27T02:20:11;9.82;;;3.80;;
13832;SDS011;6987;19.472;-99.276;2024-01-27T02:22:40;43.45;;;17.50;;
13832;SDS011;6987;19.472;-99.276;2024-01-27T02:25:10;47.50;;;19.33;;
13832;SDS011;6987;19.472;-99.276;2024-01-27T02:27:40;51.88;;;22.88;;
13832;SDS011;6987;19.472;-99.276;2024-01-27T02:30:09;44.53;;;24.00;;
13832;SDS011;6987;19.472;-99.276;2024-01-27T02:32:38;35.97;;;20.08;;
13832;SDS011;6987;19.472;-99.276;2024-01-27T02:35:07;19.30;;;13.85;;
13832;SDS011;6987;19.472;-99.276;2024-01-27T02:37:36;10.52;;;8.65;;
13832;SDS011;6987;19.472;-99.276;2024-01-27T02:40:05;20.63;;;11.55;;
13832;SDS011;6987;19.472;-99.276;2024-01-27T02:42:36;25.13;;;12.30;;
13832;SDS011;6987;19.472;-99.276;2024-01-27T02:45:07;11.18;;;7.60;;
13832;SDS011;6987;19.472;-99.276;2024-01-27T02:47:36;13.68;;;6.22;;
13832;SDS011;6987;19.472;-99.276;2024-01-27T02:50:06;24.92;;;7.35;;
13832;SDS011;6987;19.472;-99.276;2024-01-27T02:52:35;10.75;;;4.28;;
13832;SDS011;6987;19.472;-99.276;2024-01-27T02:55:04;6.57;;;4.65;;
13832;SDS011;6987;19.472;-99.276;2024-01-27T02:57:33;7.00;;;4.57;;
13832;SDS011;6987;19.472;-99.276;2024-01-27T03:00:04;9.93;;;3.42;;
13832;SDS011;6987;19.472;-99.276;2024-01-27T03:02:34;6.35;;;3.45;;
13832;SDS011;6987;19.472;-99.276;2024-01-27T03:05:02;18.27;;;3.42;;
13832;SDS011;6987;19.472;-99.276;2024-01-27T03:07:32;9.93;;;2.78;;
13832;SDS011;6987;19.472;-99.276;2024-01-27T03:10:00;11.02;;;3.25;;
13832;SDS011;6987;19.472;-99.276;2024-01-27T03:12:29;23.85;;;5.10;;
13832;SDS011;6987;19.472;-99.276;2024-01-27T03:14:58;27.63;;;4.75;;
13832;SDS011;6987;19.472;-99.276;2024-01-27T03:17:29;12.88;;;5.38;;
13832;SDS011;6987;19.472;-99.276;2024-01-27T03:19:58;13.88;;;4.03;;
13832;SDS011;6987;19.472;-99.276;2024-01-27T03:22:27;15.35;;;4.10;;
13832;SDS011;6987;19.472;-99.276;2024-01-27T03:24:56;11.35;;;4.53;;
13832;SDS011;6987;19.472;-99.276;2024-01-27T03:27:24;9.60;;;4.90;;
13832;SDS011;6987;19.472;-99.276;2024-01-27T03:29:55;10.32;;;3.70;;
13832;SDS011;6987;19.472;-99.276;2024-01-27T03:32:24;16.58;;;4.28;;
13832;SDS011;6987;19.472;-99.276;2024-01-27T03:34:55;14.15;;;4.28;;
13832;SDS011;6987;19.472;-99.276;2024-01-27T03:37:23;21.35;;;3.97;;
13832;SDS011;6987;19.472;-99.276;2024-01-27T03:39:52;8.02;;;3.25;;
13832;SDS011;6987;19.472;-99.276;2024-01-27T03:42:21;12.93;;;4.07;;
13832;SDS011;6987;19.472;-99.276;2024-01-27T03:44:50;8.98;;;3.00;;
13832;SDS011;6987;19.472;-99.276;2024-01-27T03:47:19;8.30;;;3.28;;
13832;SDS011;6987;19.472;-99.276;2024-01-27T03:49:49;6.78;;;2.63;;
13832;SDS011;6987;19.472;-99.276;2024-01-27T03:52:20;14.82;;;3.17;;
13832;SDS011;6987;19.472;-99.276;2024-01-27T03:54:49;20.13;;;3.40;;
13832;SDS011;6987;19.472;-99.276;2024-01-27T03:57:17;18.90;;;3.20;;
13832;SDS011;6987;19.472;-99.276;2024-01-27T03:59:46;7.45;;;3.42;;
13832;SDS011;6987;19.472;-99.276;2024-01-27T04:02:15;12.82;;;3.63;;
13832;SDS011;6987;19.472;-99.276;2024-01-27T04:04:44;15.57;;;3.03;;
13832;SDS011;6987;19.472;-99.276;2024-01-27T04:07:13;17.55;;;3.90;;
13832;SDS011;6987;19.472;-99.276;2024-01-27T04:09:44;11.02;;;3.03;;
13832;SDS011;6987;19.472;-99.276;2024-01-27T04:12:13;15.73;;;3.03;;
13832;SDS011;6987;19.472;-99.276;2024-01-27T04:14:41;15.57;;;3.22;;
13832;SDS011;6987;19.472;-99.276;2024-01-27T04:17:11;8.07;;;2.83;;
13832;SDS011;6987;19.472;-99.276;2024-01-27T04:19:39;5.47;;;3.10;;
13832;SDS011;6987;19.472;-99.276;2024-01-27T04:22:08;10.93;;;3.75;;
13832;SDS011;6987;19.472;-99.276;2024-01-27T04:24:37;6.10;;;2.88;;
13832;SDS011;6987;19.472;-99.276;2024-01-27T04:27:08;7.72;;;2.80;;
13832;SDS011;6987;19.472;-99.276;2024-01-27T04:29:37;3.70;;;2.17;;
13832;SDS011;6987;19.472;-99.276;2024-01-27T04:32:07;6.35;;;2.65;;
13832;SDS011;6987;19.472;-99.276;2024-01-27T04:34:36;10.27;;;2.63;;
13832;SDS011;6987;19.472;-99.276;2024-01-27T04:37:05;7.70;;;2.47;;
13832;SDS011;6987;19.472;-99.276;2024-01-27T04:39:34;10.60;;;2.72;;
13832;SDS011;6987;19.472;-99.276;2024-01-27T04:42:03;4.13;;;2.33;;
13832;SDS011;6987;19.472;-99.276;2024-01-27T04:44:34;7.97;;;2.42;;
13832;SDS011;6987;19.472;-99.276;2024-01-27T04:47:03;5.57;;;2.53;;
13832;SDS011;6987;19.472;-99.276;2024-01-27T04:49:32;8.27;;;2.67;;
13832;SDS011;6987;19.472;-99.276;2024-01-27T04:52:01;10.45;;;2.50;;
13832;SDS011;6987;19.472;-99.276;2024-01-27T04:54:31;12.43;;;2.63;;
13832;SDS011;6987;19.472;-99.276;2024-01-27T04:57:00;5.93;;;2.33;;
13832;SDS011;6987;19.472;-99.276;2024-01-27T04:59:29;4.47;;;2.10;;
13832;SDS011;6987;19.472;-99.276;2024-01-27T05:01:59;7.28;;;2.65;;
13832;SDS011;6987;19.472;-99.276;2024-01-27T05:04:28;4.72;;;2.13;;
13832;SDS011;6987;19.472;-99.276;2024-01-27T05:06:57;3.72;;;2.15;;
13832;SDS011;6987;19.472;-99.276;2024-01-27T05:09:26;6.55;;;2.45;;
13832;SDS011;6987;19.472;-99.276;2024-01-27T05:11:55;10.73;;;2.30;;
13832;SDS011;6987;19.472;-99.276;2024-01-27T05:14:24;5.63;;;2.33;;
13832;SDS011;6987;19.472;-99.276;2024-01-27T05:16:53;9.60;;;2.95;;
13832;SDS011;6987;19.472;-99.276;2024-01-27T05:19:24;9.27;;;2.50;;
13832;SDS011;6987;19.472;-99.276;2024-01-27T05:21:53;8.88;;;2.33;;
13832;SDS011;6987;19.472;-99.276;2024-01-27T05:24:22;8.15;;;2.40;;
13832;SDS011;6987;19.472;-99.276;2024-01-27T05:26:51;13.50;;;3.08;;
13832;SDS011;6987;19.472;-99.276;2024-01-27T05:29:20;13.00;;;3.42;;
13832;SDS011;6987;19.472;-99.276;2024-01-27T05:31:48;16.63;;;2.60;;
13832;SDS011;6987;19.472;-99.276;2024-01-27T05:34:18;12.23;;;2.60;;
13832;SDS011;6987;19.472;-99.276;2024-01-27T05:36:48;12.85;;;2.92;;
13832;SDS011;6987;19.472;-99.276;2024-01-27T05:39:17;7.03;;;2.58;;
13832;SDS011;6987;19.472;-99.276;2024-01-27T05:41:46;11.88;;;2.90;;
13832;SDS011;6987;19.472;-99.276;2024-01-27T05:44:15;9.20;;;2.78;;
13832;SDS011;6987;19.472;-99.276;2024-01-27T05:46:44;12.05;;;2.90;;
13832;SDS011;6987;19.472;-99.276;2024-01-27T05:49:14;11.77;;;2.63;;
13832;SDS011;6987;19.472;-99.276;2024-01-27T05:51:43;6.88;;;2.25;;
13832;SDS011;6987;19.472;-99.276;2024-01-27T05:54:13;5.93;;;2.40;;
13832;SDS011;6987;19.472;-99.276;2024-01-27T05:56:42;6.10;;;2.20;;
13832;SDS011;6987;19.472;-99.276;2024-01-27T05:59:11;7.28;;;2.30;;
13832;SDS011;6987;19.472;-99.276;2024-01-27T06:01:40;5.68;;;2.13;;
13832;SDS011;6987;19.472;-99.276;2024-01-27T06:04:10;7.97;;;2.33;;
13832;SDS011;6987;19.472;-99.276;2024-01-27T06:06:40;11.43;;;2.38;;
13832;SDS011;6987;19.472;-99.276;2024-01-27T06:09:09;13.32;;;2.50;;
13832;SDS011;6987;19.472;-99.276;2024-01-27T06:11:41;7.32;;;2.53;;
13832;SDS011;6987;19.472;-99.276;2024-01-27T06:14:10;11.65;;;2.13;;
13832;SDS011;6987;19.472;-99.276;2024-01-27T06:16:38;3.47;;;2.08;;
13832;SDS011;6987;19.472;-99.276;2024-01-27T06:19:07;6.60;;;1.95;;
13832;SDS011;6987;19.472;-99.276;2024-01-27T06:21:36;8.93;;;2.05;;
13832;SDS011;6987;19.472;-99.276;2024-01-27T06:24:05;6.43;;;2.13;;
13832;SDS011;6987;19.472;-99.276;2024-01-27T06:26:35;8.15;;;1.90;;
13832;SDS011;6987;19.472;-99.276;2024-01-27T06:29:06;9.63;;;1.75;;
13832;SDS011;6987;19.472;-99.276;2024-01-27T06:31:35;6.78;;;2.10;;
13832;SDS011;6987;19.472;-99.276;2024-01-27T06:34:04;4.30;;;1.95;;
13832;SDS011;6987;19.472;-99.276;2024-01-27T06:36:33;2.33;;;1.85;;
13832;SDS011;6987;19.472;-99.276;2024-01-27T06:39:02;4.15;;;2.25;;
13832;SDS011;6987;19.472;-99.276;2024-01-27T06:41:31;2.72;;;1.75;;
13832;SDS011;6987;19.472;-99.276;2024-01-27T06:44:00;5.35;;;1.83;;
13832;SDS011;6987;19.472;-99.276;2024-01-27T06:46:31;3.88;;;2.25;;
13832;SDS011;6987;19.472;-99.276;2024-01-27T06:49:00;4.18;;;2.05;;
13832;SDS011;6987;19.472;-99.276;2024-01-27T06:51:30;3.38;;;2.25;;
13832;SDS011;6987;19.472;-99.276;2024-01-27T06:53:59;9.32;;;1.85;;
13832;SDS011;6987;19.472;-99.276;2024-01-27T06:56:28;5.28;;;1.80;;
13832;SDS011;6987;19.472;-99.276;2024-01-27T06:58:59;4.63;;;1.70;;
13832;SDS011;6987;19.472;-99.276;2024-01-27T07:01:31;3.80;;;1.60;;
13832;SDS011;6987;19.472;-99.276;2024-01-27T07:04:00;5.68;;;2.30;;
13832;SDS011;6987;19.472;-99.276;2024-01-27T07:06:29;3.45;;;1.90;;
13832;SDS011;6987;19.472;-99.276;2024-01-27T07:08:58;8.55;;;1.65;;
13832;SDS011;6987;19.472;-99.276;2024-01-27T07:11:27;6.03;;;2.05;;
13832;SDS011;6987;19.472;-99.276;2024-01-27T07:13:56;2.75;;;1.63;;
13832;SDS011;6987;19.472;-99.276;2024-01-27T07:16:25;2.88;;;1.60;;
13832;SDS011;6987;19.472;-99.276;2024-01-27T07:18:56;1.60;;;1.50;;
13832;SDS011;6987;19.472;-99.276;2024-01-27T07:21:25;2.55;;;1.83;;
13832;SDS011;6987;19.472;-99.276;2024-01-27T07:23:57;3.88;;;1.60;;
13832;SDS011;6987;19.472;-99.276;2024-01-27T07:26:26;3.60;;;1.75;;
13832;SDS011;6987;19.472;-99.276;2024-01-27T07:28:55;3.97;;;1.73;;
13832;SDS011;6987;19.472;-99.276;2024-01-27T07:31:24;13.98;;;1.60;;
13832;SDS011;6987;19.472;-99.276;2024-01-27T07:33:53;3.97;;;2.10;;
13832;SDS011;6987;19.472;-99.276;2024-01-27T07:36:24;1.67;;;1.58;;
13832;SDS011;6987;19.472;-99.276;2024-01-27T07:38:58;4.80;;;1.52;;
13832;SDS011;6987;19.472;-99.276;2024-01-27T07:41:27;1.48;;;1.38;;
13832;SDS011;6987;19.472;-99.276;2024-01-27T07:43:56;1.73;;;1.63;;
13832;SDS011;6987;19.472;-99.276;2024-01-27T07:46:25;2.47;;;1.52;;
13832;SDS011;6987;19.472;-99.276;2024-01-27T07:48:54;3.92;;;1.52;;
13832;SDS011;6987;19.472;-99.276;2024-01-27T07:51:24;8.07;;;1.55;;
13832;SDS011;6987;19.472;-99.276;2024-01-27T07:53:54;6.22;;;1.85;;
13832;SDS011;6987;19.472;-99.276;2024-01-27T07:56:23;6.25;;;2.75;;
13832;SDS011;6987;19.472;-99.276;2024-01-27T07:58:52;1.50;;;1.17;;
13832;SDS011;6987;19.472;-99.276;2024-01-27T08:01:21;1.75;;;1.40;;
13832;SDS011;6987;19.472;-99.276;2024-01-27T08:03:50;1.23;;;1.08;;
13832;SDS011;6987;19.472;-99.276;2024-01-27T08:06:26;1.23;;;1.13;;
13832;SDS011;6987;19.472;-99.276;2024-01-27T08:08:57;1.45;;;1.35;;
13832;SDS011;6987;19.472;-99.276;2024-01-27T08:11:26;1.38;;;1.27;;
13832;SDS011;6987;19.472;-99.276;2024-01-27T08:13:55;1.05;;;1.05;;
13832;SDS011;6987;19.472;-99.276;2024-01-27T08:16:24;4.45;;;1.20;;
13832;SDS011;6987;19.472;-99.276;2024-01-27T08:18:53;1.00;;;1.00;;
13832;SDS011;6987;19.472;-99.276;2024-01-27T08:21:22;1.13;;;0.88;;
13832;SDS011;6987;19.472;-99.276;2024-01-27T08:23:51;0.90;;;0.90;;
13832;SDS011;6987;19.472;-99.276;2024-01-27T08:26:22;1.98;;;1.00;;
13832;SDS011;6987;19.472;-99.276;2024-01-27T08:28:51;4.82;;;1.20;;
13832;SDS011;6987;19.472;-99.276;2024-01-27T08:31:22;2.08;;;1.10;;
13832;SDS011;6987;19.472;-99.276;2024-01-27T08:33:50;1.55;;;1.40;;
13832;SDS011;6987;19.472;-99.276;2024-01-27T08:36:20;1.48;;;1.10;;
13832;SDS011;6987;19.472;-99.276;2024-01-27T08:38:49;1.10;;;0.95;;
13832;SDS011;6987;19.472;-99.276;2024-01-27T08:41:18;1.00;;;1.00;;
13832;SDS011;6987;19.472;-99.276;2024-01-27T08:43:50;0.90;;;0.90;;
13832;SDS011;6987;19.472;-99.276;2024-01-27T08:46:19;2.10;;;0.70;;
13832;SDS011;6987;19.472;-99.276;2024-01-27T08:48:48;1.70;;;0.80;;
13832;SDS011;6987;19.472;-99.276;2024-01-27T08:51:17;0.90;;;0.90;;
13832;SDS011;6987;19.472;-99.276;2024-01-27T08:53:46;4.68;;;1.30;;
13832;SDS011;6987;19.472;-99.276;2024-01-27T08:56:16;1.00;;;0.88;;
13832;SDS011;6987;19.472;-99.276;2024-01-27T08:58:45;1.27;;;1.05;;
13832;SDS011;6987;19.472;-99.276;2024-01-27T09:01:17;4.10;;;1.30;;
13832;SDS011;6987;19.472;-99.276;2024-01-27T09:03:46;4.43;;;1.27;;
13832;SDS011;6987;19.472;-99.276;2024-01-27T09:06:16;4.68;;;1.42;;
13832;SDS011;6987;19.472;-99.276;2024-01-27T09:08:45;5.75;;;1.42;;
13832;SDS011;6987;19.472;-99.276;2024-01-27T09:11:14;2.58;;;0.95;;
13832;SDS011;6987;19.472;-99.276;2024-01-27T09:13:43;1.95;;;0.90;;
13832;SDS011;6987;19.472;-99.276;2024-01-27T09:16:12;7.03;;;1.42;;
13832;SDS011;6987;19.472;-99.276;2024-01-27T09:18:42;3.50;;;1.27;;
13832;SDS011;6987;19.472;-99.276;2024-01-27T09:21:11;2.30;;;1.00;;
13832;SDS011;6987;19.472;-99.276;2024-01-27T09:23:46;1.85;;;1.20;;
13832;SDS011;6987;19.472;-99.276;2024-01-27T09:26:15;1.30;;;1.20;;
13832;SDS011;6987;19.472;-99.276;2024-01-27T09:28:44;2.17;;;1.20;;
13832;SDS011;6987;19.472;-99.276;2024-01-27T09:31:20;5.40;;;0.95;;
13832;SDS011;6987;19.472;-99.276;2024-01-27T09:33:51;2.10;;;1.25;;
13832;SDS011;6987;19.472;-99.276;2024-01-27T09:36:21;3.90;;;1.30;;
13832;SDS011;6987;19.472;-99.276;2024-01-27T09:38:50;2.80;;;1.33;;
13832;SDS011;6987;19.472;-99.276;2024-01-27T09:41:20;1.10;;;1.10;;
13832;SDS011;6987;19.472;-99.276;2024-01-27T09:43:50;4.35;;;1.40;;
13832;SDS011;6987;19.472;-99.276;2024-01-27T09:46:20;1.90;;;1.58;;
13832;SDS011;6987;19.472;-99.276;2024-01-27T09:48:52;2.75;;;1.80;;
13832;SDS011;6987;19.472;-99.276;2024-01-27T09:51:21;2.33;;;1.92;;
13832;SDS011;6987;19.472;-99.276;2024-01-27T09:53:51;3.15;;;1.88;;
13832;SDS011;6987;19.472;-99.276;2024-01-27T09:56:19;13.15;;;2.00;;
13832;SDS011;6987;19.472;-99.276;2024-01-27T09:58:49;7.85;;;2.00;;
13832;SDS011;6987;19.472;-99.276;2024-01-27T10:01:21;4.63;;;1.60;;
13832;SDS011;6987;19.472;-99.276;2024-01-27T10:03:54;1.27;;;1.17;;
13832;SDS011;6987;19.472;-99.276;2024-01-27T10:06:24;2.40;;;1.77;;
13832;SDS011;6987;19.472;-99.276;2024-01-27T10:08:54;4.32;;;1.67;;
13832;SDS011;6987;19.472;-99.276;2024-01-27T10:11:23;6.05;;;1.73;;
13832;SDS011;6987;19.472;-99.276;2024-01-27T10:13:55;4.63;;;1.70;;
13832;SDS011;6987;19.472;-99.276;2024-01-27T10:16:25;1.65;;;1.55;;
13832;SDS011;6987;19.472;-99.276;2024-01-27T10:19:02;11.55;;;2.05;;
13832;SDS011;6987;19.472;-99.276;2024-01-27T10:21:31;4.95;;;2.08;;
13832;SDS011;6987;19.472;-99.276;2024-01-27T10:24:01;10.30;;;1.95;;
13832;SDS011;6987;19.472;-99.276;2024-01-27T10:26:34;10.13;;;2.40;;
13832;SDS011;6987;19.472;-99.276;2024-01-27T10:29:02;5.18;;;2.40;;
13832;SDS011;6987;19.472;-99.276;2024-01-27T10:31:32;2.65;;;2.10;;
13832;SDS011;6987;19.472;-99.276;2024-01-27T10:34:03;2.22;;;2.00;;
13832;SDS011;6987;19.472;-99.276;2024-01-27T10:36:38;3.28;;;2.10;;
13832;SDS011;6987;19.472;-99.276;2024-01-27T10:39:15;4.53;;;2.53;;
13832;SDS011;6987;19.472;-99.276;2024-01-27T10:41:45;2.47;;;2.28;;
13832;SDS011;6987;19.472;-99.276;2024-01-27T10:44:14;3.35;;;2.28;;
13832;SDS011;6987;19.472;-99.276;2024-01-27T10:46:44;1.88;;;1.77;;
13832;SDS011;6987;19.472;-99.276;2024-01-27T10:49:16;5.78;;;2.30;;
13832;SDS011;6987;19.472;-99.276;2024-01-27T10:51:46;8.52;;;2.63;;
13832;SDS011;6987;19.472;-99.276;2024-01-27T10:54:19;4.65;;;2.28;;
13832;SDS011;6987;19.472;-99.276;2024-01-27T10:56:53;16.45;;;3.03;;
13832;SDS011;6987;19.472;-99.276;2024-01-27T10:59:22;7.32;;;2.58;;
13832;SDS011;6987;19.472;-99.276;2024-01-27T11:01:51;8.82;;;2.13;;
13832;SDS011;6987;19.472;-99.276;2024-01-27T11:04:22;3.22;;;2.40;;
13832;SDS011;6987;19.472;-99.276;2024-01-27T11:06:51;4.20;;;2.30;;
13832;SDS011;6987;19.472;-99.276;2024-01-27T11:09:20;9.38;;;3.20;;
13832;SDS011;6987;19.472;-99.276;2024-01-27T11:11:49;13.98;;;3.30;;
13832;SDS011;6987;19.472;-99.276;2024-01-27T11:14:18;14.65;;;3.08;;
13832;SDS011;6987;19.472;-99.276;2024-01-27T11:16:47;15.05;;;3.55;;
13832;SDS011;6987;19.472;-99.276;2024-01-27T11:19:17;8.93;;;2.80;;
13832;SDS011;6987;19.472;-99.276;2024-01-27T11:21:47;10.00;;;3.03;;
13832;SDS011;6987;19.472;-99.276;2024-01-27T11:24:17;10.75;;;3.33;;
13832;SDS011;6987;19.472;-99.276;2024-01-27T11:26:46;6.13;;;3.22;;
13832;SDS011;6987;19.472;-99.276;2024-01-27T11:29:16;7.47;;;3.22;;
13832;SDS011;6987;19.472;-99.276;2024-01-27T11:31:46;8.93;;;3.20;;
13832;SDS011;6987;19.472;-99.276;2024-01-27T11:34:14;5.50;;;2.60;;
13832;SDS011;6987;19.472;-99.276;2024-01-27T11:36:44;5.65;;;2.78;;
13832;SDS011;6987;19.472;-99.276;2024-01-27T11:39:36;11.48;;;3.05;;
13832;SDS011;6987;19.472;-99.276;2024-01-27T11:42:07;10.38;;;3.45;;
13832;SDS011;6987;19.472;-99.276;2024-01-27T11:44:37;5.13;;;2.50;;
13832;SDS011;6987;19.472;-99.276;2024-01-27T11:47:13;5.75;;;2.20;;
13832;SDS011;6987;19.472;-99.276;2024-01-27T11:49:42;4.72;;;2.40;;
13832;SDS011;6987;19.472;-99.276;2024-01-27T11:52:11;7.53;;;3.03;;
13832;SDS011;6987;19.472;-99.276;2024-01-27T11:54:42;4.47;;;2.80;;
13832;SDS011;6987;19.472;-99.276;2024-01-27T11:57:11;5.15;;;2.40;;
13832;SDS011;6987;19.472;-99.276;2024-01-27T11:59:40;5.90;;;3.35;;
13832;SDS011;6987;19.472;-99.276;2024-01-27T12:02:10;7.95;;;2.88;;
13832;SDS011;6987;19.472;-99.276;2024-01-27T12:04:39;5.55;;;2.40;;
13832;SDS011;6987;19.472;-99.276;2024-01-27T12:07:08;6.72;;;2.85;;
13832;SDS011;6987;19.472;-99.276;2024-01-27T12:09:37;5.10;;;2.65;;
13832;SDS011;6987;19.472;-99.276;2024-01-27T12:12:08;4.30;;;3.10;;
13832;SDS011;6987;19.472;-99.276;2024-01-27T12:14:38;6.85;;;3.20;;
13832;SDS011;6987;19.472;-99.276;2024-01-27T12:17:10;3.10;;;2.85;;
13832;SDS011;6987;19.472;-99.276;2024-01-27T12:19:39;5.10;;;2.53;;
13832;SDS011;6987;19.472;-99.276;2024-01-27T12:22:20;6.07;;;2.42;;
13832;SDS011;6987;19.472;-99.276;2024-01-27T12:24:51;5.20;;;2.92;;
13832;SDS011;6987;19.472;-99.276;2024-01-27T12:27:23;7.47;;;2.90;;
13832;SDS011;6987;19.472;-99.276;2024-01-27T12:29:52;4.20;;;2.80;;
13832;SDS011;6987;19.472;-99.276;2024-01-27T12:32:21;7.55;;;3.20;;
13832;SDS011;6987;19.472;-99.276;2024-01-27T12:34:50;6.38;;;3.05;;
13832;SDS011;6987;19.472;-99.276;2024-01-27T12:37:20;6.88;;;3.03;;
13832;SDS011;6987;19.472;-99.276;2024-01-27T12:39:50;12.15;;;2.97;;
13832;SDS011;6987;19.472;-99.276;2024-01-27T12:42:19;10.02;;;3.13;;
13832;SDS011;6987;19.472;-99.276;2024-01-27T12:44:50;7.90;;;3.03;;
13832;SDS011;6987;19.472;-99.276;2024-01-27T12:47:22;9.27;;;3.45;;
13832;SDS011;6987;19.472;-99.276;2024-01-27T12:49:51;7.13;;;3.05;;
13832;SDS011;6987;19.472;-99.276;2024-01-27T12:52:20;5.88;;;2.60;;
13832;SDS011;6987;19.472;-99.276;2024-01-27T12:54:50;7.10;;;2.28;;
13832;SDS011;6987;19.472;-99.276;2024-01-27T12:57:19;5.90;;;3.17;;
13832;SDS011;6987;19.472;-99.276;2024-01-27T12:59:50;7.85;;;3.65;;
13832;SDS011;6987;19.472;-99.276;2024-01-27T13:02:19;7.25;;;2.90;;
13832;SDS011;6987;19.472;-99.276;2024-01-27T13:04:48;11.85;;;3.65;;
13832;SDS011;6987;19.472;-99.276;2024-01-27T13:07:17;12.57;;;6.00;;
13832;SDS011;6987;19.472;-99.276;2024-01-27T13:09:46;7.57;;;3.40;;
13832;SDS011;6987;19.472;-99.276;2024-01-27T13:12:15;9.13;;;5.60;;
13832;SDS011;6987;19.472;-99.276;2024-01-27T13:14:44;11.98;;;6.28;;
13832;SDS011;6987;19.472;-99.276;2024-01-27T13:17:16;12.45;;;5.00;;
13832;SDS011;6987;19.472;-99.276;2024-01-27T13:19:45;8.77;;;4.50;;
13832;SDS011;6987;19.472;-99.276;2024-01-27T13:22:14;10.73;;;5.05;;
13832;SDS011;6987;19.472;-99.276;2024-01-27T13:24:43;10.50;;;5.45;;
13832;SDS011;6987;19.472;-99.276;2024-01-27T13:27:12;12.13;;;5.22;;
13832;SDS011;6987;19.472;-99.276;2024-01-27T13:29:41;12.60;;;5.63;;
13832;SDS011;6987;19.472;-99.276;2024-01-27T13:32:11;27.35;;;6.35;;
13832;SDS011;6987;19.472;-99.276;2024-01-27T13:34:41;14.98;;;6.05;;
13832;SDS011;6987;19.472;-99.276;2024-01-27T13:37:11;12.65;;;5.70;;
13832;SDS011;6987;19.472;-99.276;2024-01-27T13:39:41;18.33;;;4.68;;
13832;SDS011;6987;19.472;-99.276;2024-01-27T13:42:11;14.40;;;4.18;;
13832;SDS011;6987;19.472;-99.276;2024-01-27T13:44:40;7.63;;;3.85;;
13832;SDS011;6987;19.472;-99.276;2024-01-27T13:47:08;10.32;;;3.45;;
13832;SDS011;6987;19.472;-99.276;2024-01-27T13:49:38;5.70;;;2.50;;
13832;SDS011;6987;19.472;-99.276;2024-01-27T13:52:09;12.75;;;2.67;;
13832;SDS011;6987;19.472;-99.276;2024-01-27T13:54:38;8.23;;;2.63;;
13832;SDS011;6987;19.472;-99.276;2024-01-27T13:57:07;12.40;;;2.90;;
13832;SDS011;6987;19.472;-99.276;2024-01-27T13:59:36;7.38;;;3.00;;
13832;SDS011;6987;19.472;-99.276;2024-01-27T14:02:05;5.90;;;2.70;;
13832;SDS011;6987;19.472;-99.276;2024-01-27T14:04:34;5.15;;;2.72;;
13832;SDS011;6987;19.472;-99.276;2024-01-27T14:07:03;7.63;;;2.70;;
13832;SDS011;6987;19.472;-99.276;2024-01-27T14:09:38;12.70;;;3.15;;
13832;SDS011;6987;19.472;-99.276;2024-01-27T14:12:07;9.98;;;3.80;;
13832;SDS011;6987;19.472;-99.276;2024-01-27T14:14:36;11.07;;;3.03;;
13832;SDS011;6987;19.472;-99.276;2024-01-27T14:17:07;8.68;;;3.70;;
13832;SDS011;6987;19.472;-99.276;2024-01-27T14:19:36;15.30;;;3.67;;
13832;SDS011;6987;19.472;-99.276;2024-01-27T14:22:06;16.02;;;3.40;;
13832;SDS011;6987;19.472;-99.276;2024-01-27T14:24:37;9.48;;;3.30;;
13832;SDS011;6987;19.472;-99.276;2024-01-27T14:27:06;12.52;;;2.80;;
13832;SDS011;6987;19.472;-99.276;2024-01-27T14:29:39;16.35;;;2.75;;
13832;SDS011;6987;19.472;-99.276;2024-01-27T14:32:08;13.63;;;2.90;;
13832;SDS011;6987;19.472;-99.276;2024-01-27T14:34:37;8.23;;;2.72;;
13832;SDS011;6987;19.472;-99.276;2024-01-27T14:37:07;5.53;;;2.15;;
13832;SDS011;6987;19.472;-99.276;2024-01-27T14:39:38;8.25;;;3.03;;
13832;SDS011;6987;19.472;-99.276;2024-01-27T14:42:10;12.15;;;2.70;;
13832;SDS011;6987;19.472;-99.276;2024-01-27T14:44:39;8.43;;;2.50;;